LHKE

Details ICAO LHKE
Name KECSKEMET
Region Hungary
Timezone Europe/Budapest (UTC+2.0)
Plans Departing 12
Arriving 12
Stats Elevation 376 ft / 115 m (AMSL)
Location 46.917500° 19.749222°
Runways 1
Magnetic Variation 4.852° E
Sunrise 2018-05-21 03:00:53 UTC / 2018-05-21 05:00:53 Local
Sunset 2018-05-21 18:17:09 UTC / 2018-05-21 20:17:09 Local
Advertisement - Login to hide

Runways

ID Width Length Bearing (true) Bearing (mag) Surface Threshold Offset Overrun Length
12 197 ft / 60 m 8,178 ft / 2,493 m 123.04° 118.19° Concrete 0 ft / 0 m 200 ft / 61 m
30 197 ft / 60 m 8,178 ft / 2,493 m 303.06° 298.21° Concrete 0 ft / 0 m 200 ft / 61 m

Map

Weather


0- 5 10 15 20 25 30 35+ Temperature / ° C

Clouds and Precipitation
Forecast for 2018-05-21 00:00 UTC. Updated 3 hours ago

Ground ~20,000 ft ~40,000 ft Winds

METAR

LHKE 210145Z 03008KT 360V060 CAVOK 13/08 Q1019 NOSIG RMK BLU

TAF

Not found

Frequencies

Tower 135.75 MHz TWR
Approach 120.25 MHz APP
Warning: Do not use this data for real-world aviation or navigation. No guarantee of current accuracy is given.